Time;durP1;ratioP1;P1;durP2;ratioP2;P2;SDS_P1;SDS_P2;PMS_P1;PMS_P2;Temp;Humidity;BMP_temperature;BMP_pressure;BME280_temperature;BME280_humidity;BME280_pressure;Samples;Min_cycle;Max_cycle;Signal;HPM_P1;HPM_P2
2022/05/20 00:00:11;;;;;;;1.38;1.10;;;17.50;55.60;19.60;94595.00;;;;10436555;28;45244;-64
2022/05/20 00:05:32;;;;;;;1.95;1.40;;;17.50;55.50;19.60;94583.00;;;;10436474;28;45693;-65
2022/05/20 00:10:53;;;;;;;1.63;1.08;;;17.50;55.40;19.60;94590.00;;;;10435991;28;45118;-65
2022/05/20 00:16:15;;;;;;;2.70;1.20;;;17.50;55.40;19.60;94598.00;;;;10436318;28;45947;-65
2022/05/20 00:21:36;;;;;;;2.15;1.20;;;17.50;55.30;19.60;94583.00;;;;10436169;28;45234;-65
2022/05/20 00:26:57;;;;;;;2.47;1.08;;;17.50;55.40;19.60;94586.00;;;;10436314;28;45129;-65
2022/05/20 00:32:19;;;;;;;1.50;0.82;;;17.50;55.40;19.60;94584.00;;;;10435982;28;45305;-64
2022/05/20 00:37:41;;;;;;;1.50;1.33;;;17.50;55.20;19.60;94575.00;;;;10435704;28;45863;-65
2022/05/20 00:43:23;;;;;;;3.03;1.17;;;17.50;55.20;19.60;94572.00;;;;10435552;28;45314;-65
2022/05/20 00:48:45;;;;;;;1.70;1.23;;;17.50;55.30;19.60;94565.00;;;;10434986;28;45798;-65
2022/05/20 00:54:11;;;;;;;3.03;1.40;;;17.50;55.20;19.60;94561.00;;;;10435492;28;45124;-65
2022/05/20 00:59:37;;;;;;;2.42;1.20;;;17.50;55.30;19.60;94574.00;;;;10432589;28;45192;-65
2022/05/20 01:05:03;;;;;;;2.28;1.20;;;17.50;55.10;19.60;94568.00;;;;10435402;28;45256;-65
2022/05/20 01:10:24;;;;;;;1.58;1.02;;;17.50;55.20;19.60;94553.00;;;;10441667;28;45879;-65
2022/05/20 01:15:45;;;;;;;1.50;1.10;;;17.50;55.10;19.60;94552.00;;;;10441836;28;45177;-64
2022/05/20 01:21:07;;;;;;;2.20;1.33;;;17.50;55.00;19.50;94560.00;;;;10441807;28;45341;-65
2022/05/20 01:26:29;;;;;;;1.67;1.10;;;17.50;55.90;19.60;94544.00;;;;10441635;28;45532;-65
2022/05/20 01:31:49;;;;;;;1.65;1.00;;;17.50;55.20;19.60;94540.00;;;;10441349;28;45213;-64
2022/05/20 01:37:10;;;;;;;2.08;1.42;;;17.50;55.10;19.50;94545.00;;;;10441139;28;45170;-65
2022/05/20 01:42:37;;;;;;;2.03;1.27;;;17.50;55.10;19.50;94536.00;;;;10440752;28;45109;-64
2022/05/20 01:48:04;;;;;;;;;;;17.50;55.10;19.60;94531.00;;;;10441171;28;45819;-65
2022/05/20 01:53:36;;;;;;;1.50;1.00;;;17.50;55.40;19.50;94528.00;;;;10440792;28;45262;-65
2022/05/20 01:59:05;;;;;;;1.70;1.08;;;17.50;55.40;19.60;94534.00;;;;10440166;28;45256;-64
2022/05/20 02:04:32;;;;;;;1.75;1.30;;;17.50;55.30;19.50;94534.00;;;;10440715;28;45108;-64
2022/05/20 02:09:56;;;;;;;;;;;17.50;55.60;19.50;94520.00;;;;10440331;28;45218;-64
2022/05/20 02:15:24;;;;;;;1.77;1.38;;;17.50;55.50;19.50;94521.00;;;;10440194;28;45114;-65
2022/05/20 02:20:49;;;;;;;1.73;1.25;;;17.40;55.60;19.50;94519.00;;;;10439844;28;45138;-65
2022/05/20 02:26:15;;;;;;;2.10;1.30;;;17.50;55.50;19.50;94523.00;;;;10439433;28;45175;-64
2022/05/20 02:31:42;;;;;;;1.50;1.08;;;17.50;55.50;19.50;94524.00;;;;10439170;28;45260;-64
2022/05/20 02:37:20;;;;;;;2.15;1.23;;;17.50;55.70;19.50;94505.00;;;;10439247;28;45242;-65
2022/05/20 02:42:42;;;;;;;1.60;1.33;;;17.50;55.50;19.50;94517.00;;;;10439165;28;45177;-64
2022/05/20 02:48:05;;;;;;;1.67;1.20;;;17.40;55.80;19.50;94516.00;;;;10438340;28;45813;-64
2022/05/20 02:53:25;;;;;;;1.85;1.35;;;17.40;55.70;19.50;94507.00;;;;10438930;28;45758;-64
2022/05/20 03:04:26;;;;;;;2.70;1.27;;;17.40;55.60;19.50;94516.00;;;;10438457;28;45189;-65
2022/05/20 03:09:47;;;;;;;2.85;1.27;;;17.40;55.70;19.50;94496.00;;;;10437925;28;45173;-64
2022/05/20 03:15:12;;;;;;;1.38;1.10;;;17.40;55.60;19.50;94489.00;;;;10437913;28;45271;-65
2022/05/20 03:20:35;;;;;;;1.80;1.40;;;17.40;55.60;19.50;94503.00;;;;10437773;28;45186;-65
2022/05/20 03:25:56;;;;;;;1.45;1.17;;;17.40;55.70;19.50;94504.00;;;;10436862;28;45749;-64
2022/05/20 03:31:16;;;;;;;1.20;1.05;;;17.40;55.60;19.50;94502.00;;;;10437766;28;45283;-65
2022/05/20 03:36:40;;;;;;;2.10;1.33;;;17.40;55.60;19.40;94488.00;;;;10437210;28;45107;-65
2022/05/20 03:42:01;;;;;;;1.40;1.17;;;17.40;55.60;19.50;94504.00;;;;10437371;28;45200;-65
2022/05/20 03:47:22;;;;;;;1.45;1.20;;;17.40;56.20;19.40;94489.00;;;;10437162;28;45181;-65
2022/05/20 03:52:44;;;;;;;1.35;1.13;;;17.40;55.60;19.50;94506.00;;;;10437133;28;45189;-64
2022/05/20 03:58:05;;;;;;;1.50;1.05;;;17.40;55.60;19.40;94496.00;;;;10436667;28;45689;-65
2022/05/20 04:03:26;;;;;;;2.05;1.25;;;17.40;55.60;19.40;94500.00;;;;10436529;28;45260;-65
2022/05/20 04:08:48;;;;;;;2.75;1.00;;;17.40;55.60;19.40;94498.00;;;;10435975;28;45469;-65
2022/05/20 04:14:09;;;;;;;2.78;1.15;;;17.40;55.60;19.40;94507.00;;;;10436497;28;45172;-65
2022/05/20 04:19:32;;;;;;;1.15;0.82;;;17.40;55.60;19.40;94508.00;;;;10436259;28;45201;-65
2022/05/20 04:24:54;;;;;;;1.98;1.20;;;17.40;55.60;19.40;94491.00;;;;10436485;28;45681;-65
2022/05/20 04:30:15;;;;;;;1.35;1.15;;;17.40;55.60;19.40;94495.00;;;;10435611;28;45183;-65
2022/05/20 04:35:36;;;;;;;2.08;0.93;;;17.30;55.50;19.40;94506.00;;;;10435203;28;45126;-65
2022/05/20 04:52:16;;;;;;;1.20;1.00;;;17.40;55.50;19.40;94510.00;;;;10442728;28;45094;-65
2022/05/20 04:57:41;;;;;;;1.30;0.98;;;17.40;55.60;19.40;94497.00;;;;10442689;28;45884;-65
2022/05/20 05:03:02;;;;;;;1.70;1.30;;;17.40;55.70;19.50;94517.00;;;;10442091;28;45265;-64
2022/05/20 05:08:22;;;;;;;1.70;1.05;;;17.40;55.90;19.40;94517.00;;;;10441970;28;45168;-64
2022/05/20 05:13:44;;;;;;;2.28;1.30;;;17.40;55.70;19.40;94512.00;;;;10442255;28;45389;-64
2022/05/20 05:19:05;;;;;;;1.52;1.02;;;17.40;55.80;19.40;94507.00;;;;10441134;28;45241;-64
2022/05/20 05:24:25;;;;;;;2.67;1.27;;;17.40;55.90;19.50;94517.00;;;;10441763;28;45105;-63
2022/05/20 05:29:47;;;;;;;1.83;1.20;;;17.40;56.00;19.40;94516.00;;;;10440918;28;45208;-64
2022/05/20 05:35:12;;;;;;;1.17;0.90;;;17.40;56.00;19.50;94522.00;;;;10441359;28;45689;-64
2022/05/20 05:40:34;;;;;;;1.58;1.20;;;17.40;55.90;19.50;94505.00;;;;10441239;28;45792;-64
2022/05/20 05:45:56;;;;;;;1.65;1.20;;;17.40;55.80;19.50;94506.00;;;;10440854;28;45848;-64
2022/05/20 05:51:16;;;;;;;1.15;1.05;;;17.40;55.60;19.50;94520.00;;;;10440221;28;45243;-64
2022/05/20 05:56:37;;;;;;;1.70;1.05;;;17.40;55.70;19.50;94514.00;;;;10425570;22;45176;-61
2022/05/20 06:02:00;;;;;;;1.65;1.15;;;17.40;55.50;19.50;94502.00;;;;10357862;28;45737;-62
2022/05/20 06:07:21;;;;;;;1.30;1.02;;;17.40;55.50;19.50;94532.00;;;;10375023;28;45145;-61
2022/05/20 06:12:42;;;;;;;1.73;1.05;;;17.40;55.60;19.50;94521.00;;;;10372531;28;45299;-61
2022/05/20 06:18:04;;;;;;;1.42;1.10;;;17.40;55.60;19.50;94513.00;;;;10376798;28;45879;-62
2022/05/20 06:23:25;;;;;;;1.67;1.08;;;17.40;55.40;19.50;94524.00;;;;10373965;28;45246;-61
2022/05/20 06:28:46;;;;;;;1.58;1.10;;;17.40;55.40;19.50;94518.00;;;;10356195;28;45170;-61
2022/05/20 06:34:08;;;;;;;1.30;1.00;;;17.40;55.40;19.50;94527.00;;;;10356482;28;45211;-62
2022/05/20 06:45:04;;;;;;;4.05;1.23;;;17.40;55.80;19.50;94528.00;;;;10355843;28;45689;-61
2022/05/20 06:50:26;;;;;;;1.30;0.95;;;17.40;55.50;19.50;94530.00;;;;10354074;28;45244;-61
2022/05/20 06:55:47;;;;;;;1.13;1.00;;;17.40;55.40;19.40;94533.00;;;;10354815;28;45697;-61
2022/05/20 07:01:07;;;;;;;1.90;1.02;;;17.40;55.30;19.50;94522.00;;;;10354679;28;45892;-61
2022/05/20 07:06:30;;;;;;;1.83;1.00;;;17.40;55.60;19.50;94526.00;;;;10354842;28;45156;-62
2022/05/20 07:11:52;;;;;;;1.52;1.10;;;17.40;55.20;19.50;94524.00;;;;10355197;28;45848;-61
2022/05/20 07:17:17;;;;;;;1.23;1.00;;;17.40;55.40;19.50;94522.00;;;;10354610;28;45133;-61
2022/05/20 07:22:39;;;;;;;1.38;1.08;;;17.40;55.20;19.50;94519.00;;;;10355117;28;45813;-61
2022/05/20 07:28:00;;;;;;;1.02;0.93;;;17.40;55.30;19.50;94512.00;;;;10354356;28;45271;-61
2022/05/20 07:33:21;;;;;;;2.60;1.10;;;17.40;55.00;19.60;94504.00;;;;10354807;28;45522;-62
2022/05/20 07:38:43;;;;;;;1.00;0.82;;;17.50;54.90;19.50;94512.00;;;;10354078;28;45094;-61
2022/05/20 07:44:04;;;;;;;1.90;1.10;;;17.50;54.90;19.60;94508.00;;;;10354492;28;45291;-61
2022/05/20 07:49:25;;;;;;;1.08;0.93;;;17.50;55.00;19.60;94506.00;;;;10364405;28;45172;-61
2022/05/20 07:54:47;;;;;;;2.33;1.10;;;17.60;55.10;19.60;94505.00;;;;10385259;28;45256;-62
2022/05/20 08:00:12;;;;;;;3.38;1.13;;;17.50;55.10;19.60;94509.00;;;;10376955;28;45546;-61
2022/05/20 08:05:35;;;;;;;1.80;1.08;;;17.50;55.20;19.60;94506.00;;;;10353140;28;45139;-61
2022/05/20 08:10:57;;;;;;;4.25;1.10;;;17.50;55.20;19.60;94502.00;;;;10353043;28;45203;-61
2022/05/20 08:16:19;;;;;;;1.77;1.20;;;17.50;54.50;19.60;94497.00;;;;10366491;28;45554;-61
2022/05/20 08:21:39;;;;;;;1.95;1.08;;;17.60;55.30;19.60;94492.00;;;;10367080;28;45181;-61
2022/05/20 08:27:01;;;;;;;2.70;1.20;;;17.60;54.90;19.60;94498.00;;;;10366797;28;45192;-61
2022/05/20 08:32:22;;;;;;;1.75;1.30;;;17.60;55.20;19.70;94491.00;;;;10366827;28;45169;-61
2022/05/20 08:37:47;;;;;;;2.67;1.33;;;17.60;55.70;19.70;94485.00;;;;10368908;28;45755;-62
2022/05/20 08:43:09;;;;;;;1.73;1.40;;;17.60;55.90;19.70;94485.00;;;;10384203;28;45176;-61
2022/05/20 08:48:30;;;;;;;2.35;1.50;;;17.60;55.60;19.70;94480.00;;;;10391185;28;45227;-60
2022/05/20 08:53:51;;;;;;;2.65;1.70;;;17.70;56.30;19.80;94483.00;;;;10386831;28;45206;-61
2022/05/20 08:59:17;;;;;;;1.60;1.40;;;17.70;56.70;19.80;94466.00;;;;10388961;28;45157;-60
2022/05/20 09:04:38;;;;;;;2.33;1.50;;;17.70;56.90;19.70;94468.00;;;;10403659;28;45171;-62
2022/05/20 09:09:59;;;;;;;2.28;1.40;;;17.70;57.50;19.70;94459.00;;;;10406262;28;45184;-60
2022/05/20 09:21:06;;;;;;;2.60;1.55;;;17.70;56.30;19.80;94466.00;;;;10400976;28;45606;-61
2022/05/20 09:26:32;;;;;;;3.15;1.63;;;17.70;56.90;19.80;94456.00;;;;10398261;28;45696;-61
2022/05/20 09:32:00;;;;;;;3.88;2.05;;;17.80;57.60;19.80;94438.00;;;;10398790;28;45177;-60
2022/05/20 09:37:21;;;;;;;3.35;1.40;;;17.80;57.10;19.80;94426.00;;;;10398538;28;45170;-61
2022/05/20 09:42:58;;;;;;;4.00;1.40;;;17.70;57.50;19.80;94429.00;;;;10389148;28;45186;-60
2022/05/20 09:48:34;;;;;;;4.20;1.70;;;17.80;57.40;19.90;94443.00;;;;10398645;28;45685;-61
2022/05/20 09:54:15;;;;;;;4.20;1.50;;;17.80;58.00;19.90;94432.00;;;;10398032;28;45709;-62
2022/05/20 09:59:47;;;;;;;1.58;1.20;;;17.80;57.70;19.90;94437.00;;;;10392022;28;45223;-63
2022/05/20 10:05:18;;;;;;;1.67;1.25;;;17.80;55.90;19.90;94405.00;;;;10398331;28;45461;-61
2022/05/20 10:10:53;;;;;;;4.97;1.50;;;17.80;55.20;19.90;94409.00;;;;10399137;28;45219;-65
2022/05/20 10:16:32;;;;;;;2.92;1.38;;;17.80;55.80;19.90;94397.00;;;;10398214;28;45233;-64
2022/05/20 10:22:02;;;;;;;3.95;1.60;;;17.90;56.40;19.90;94376.00;;;;10398504;28;45697;-65
2022/05/20 10:27:28;;;;;;;3.42;1.70;;;17.90;57.00;20.00;94375.00;;;;10397900;28;45180;-64
2022/05/20 10:32:59;;;;;;;5.10;1.80;;;17.90;57.90;20.00;94379.00;;;;10397329;28;45174;-61
2022/05/20 10:39:06;;;;;;;4.00;1.60;;;18.00;57.70;20.00;94367.00;;;;10393674;28;45247;-62
2022/05/20 10:50:24;;;;;;;4.25;2.00;;;17.90;58.30;20.00;94361.00;;;;10356304;28;45172;-61
2022/05/20 10:56:08;;;;;;;4.57;2.10;;;17.90;58.00;20.00;94343.00;;;;10357504;28;45917;-61
2022/05/20 11:01:43;;;;;;;2.47;1.70;;;17.90;58.30;20.00;94348.00;;;;10358162;28;45195;-62
2022/05/20 11:07:42;;;;;;;4.97;1.75;;;17.90;57.80;20.00;94345.00;;;;10356698;28;45790;-62
2022/05/20 11:13:15;;;;;;;3.15;1.80;;;17.90;57.90;20.00;94311.00;;;;10356690;28;45166;-63
2022/05/20 11:19:05;;;;;;;3.78;1.90;;;17.90;57.80;20.00;94324.00;;;;10355628;28;45229;-62
2022/05/20 11:24:56;;;;;;;2.60;1.90;;;17.90;59.00;20.10;94311.00;;;;10362921;28;45161;-62
2022/05/20 11:30:34;;;;;;;2.88;2.00;;;18.00;58.40;20.10;94310.00;;;;10372271;28;45287;-62
2022/05/20 11:36:15;;;;;;;3.53;2.03;;;18.00;58.90;20.10;94296.00;;;;10393390;28;45580;-62
2022/05/20 11:41:44;;;;;;;3.13;2.00;;;18.00;60.50;20.10;94298.00;;;;10385144;28;45349;-62
2022/05/20 11:47:34;;;;;;;3.10;2.03;;;18.00;59.80;20.10;94294.00;;;;10355076;28;45855;-62
2022/05/20 11:53:03;;;;;;;2.90;1.92;;;18.00;59.50;20.10;94272.00;;;;10355699;28;45203;-62
2022/05/20 11:58:30;;;;;;;3.45;2.25;;;18.10;60.40;20.20;94272.00;;;;10394264;22;46117;-65
2022/05/20 12:04:08;;;;;;;3.42;1.90;;;18.10;61.10;20.20;94265.00;;;;10388802;28;45180;-63
2022/05/20 12:09:37;;;;;;;3.13;1.90;;;18.20;59.10;20.20;94244.00;;;;10380911;28;45256;-64
2022/05/20 12:15:36;;;;;;;2.53;1.60;;;18.10;58.40;20.10;94231.00;;;;10416689;28;45796;-64
2022/05/20 12:26:50;;;;;;;3.15;1.92;;;18.10;57.90;20.10;94208.00;;;;10372989;28;45216;-64
2022/05/20 12:32:47;;;;;;;2.50;1.67;;;18.10;57.60;20.10;94189.00;;;;10353785;28;45135;-63
2022/05/20 12:38:24;;;;;;;3.40;1.90;;;18.00;57.30;20.10;94189.00;;;;10371765;28;45229;-63
2022/05/20 12:44:01;;;;;;;2.83;1.80;;;18.00;57.10;20.10;94186.00;;;;10391435;28;45188;-65
2022/05/20 12:49:25;;;;;;;3.95;1.90;;;18.10;57.00;20.10;94185.00;;;;10393520;28;45684;-64
2022/05/20 12:54:52;;;;;;;2.55;1.63;;;18.00;56.80;20.10;94177.00;;;;10353152;28;45225;-65
2022/05/20 13:00:16;;;;;;;2.53;1.60;;;18.00;56.60;20.10;94168.00;;;;10383382;28;45113;-65
2022/05/20 13:05:41;;;;;;;2.92;1.88;;;18.10;56.50;20.20;94155.00;;;;10420543;28;45187;-64
2022/05/20 13:11:10;;;;;;;3.03;1.52;;;18.10;56.40;20.20;94150.00;;;;10405106;28;45036;-63
2022/05/20 13:16:30;;;;;;;3.00;1.58;;;18.10;56.20;20.10;94137.00;;;;10400133;28;45191;-63
2022/05/20 13:21:55;;;;;;;2.80;1.67;;;18.10;56.10;20.20;94131.00;;;;10400663;28;45189;-63
2022/05/20 13:27:21;;;;;;;3.40;1.77;;;18.10;56.00;20.20;94120.00;;;;10399411;28;45169;-63
2022/05/20 13:32:41;;;;;;;2.17;1.48;;;18.10;55.90;20.20;94115.00;;;;10399788;28;45153;-64
2022/05/20 13:38:02;;;;;;;2.50;1.67;;;18.10;55.80;20.20;94107.00;;;;10398226;28;45903;-63
2022/05/20 13:43:30;;;;;;;2.05;1.60;;;18.20;55.70;20.20;94093.00;;;;10377189;28;45681;-64
2022/05/20 13:54:36;;;;;;;1.90;1.40;;;18.20;55.60;20.20;94078.00;;;;10358960;28;45177;-64
2022/05/20 13:59:59;;;;;;;2.45;1.50;;;18.20;55.40;20.20;94079.00;;;;10358184;28;45300;-63
2022/05/20 14:05:25;;;;;;;2.33;1.77;;;18.20;55.40;20.30;94041.00;;;;10358049;28;45140;-63
2022/05/20 14:10:50;;;;;;;3.38;1.67;;;18.20;55.20;20.30;94072.00;;;;10357631;28;45225;-64
2022/05/20 14:16:18;;;;;;;2.88;1.58;;;18.20;55.10;20.30;94084.00;;;;10357563;28;45135;-64
2022/05/20 14:21:40;;;;;;;2.33;1.50;;;18.20;55.00;20.30;94072.00;;;;10357882;28;45163;-64
2022/05/20 14:27:01;;;;;;;1.90;1.50;;;18.20;54.90;20.30;94041.00;;;;10356724;28;45112;-64
2022/05/20 14:32:24;;;;;;;2.28;1.60;;;18.30;54.90;20.30;94057.00;;;;10357730;28;45396;-64
2022/05/20 14:37:45;;;;;;;1.90;1.60;;;18.30;54.80;20.30;94039.00;;;;10356659;28;45270;-63
2022/05/20 14:43:08;;;;;;;2.05;1.50;;;18.30;54.70;20.30;94030.00;;;;10357286;28;45752;-64
2022/05/20 14:48:38;;;;;;;2.00;1.30;;;18.30;54.80;20.40;94049.00;;;;10359231;28;45788;-63
2022/05/20 14:54:03;;;;;;;2.03;1.35;;;18.30;54.50;20.40;94041.00;;;;10367004;28;45202;-64
2022/05/20 14:59:34;;;;;;;2.35;1.58;;;18.30;54.50;20.40;94051.00;;;;10355756;28;45231;-64
2022/05/20 15:04:56;;;;;;;3.88;1.20;;;18.40;54.40;20.40;94047.00;;;;10356099;28;45805;-64
2022/05/20 15:10:20;;;;;;;1.65;1.30;;;18.40;54.30;20.40;94066.00;;;;10355987;28;45221;-64
2022/05/20 15:15:41;;;;;;;2.25;1.60;;;18.40;54.10;20.40;94068.00;;;;10355567;28;45777;-64
2022/05/20 15:21:08;;;;;;;2.15;1.30;;;18.40;54.10;20.50;94096.00;;;;10374722;28;45468;-64
2022/05/20 15:26:32;;;;;;;2.50;1.20;;;18.40;54.00;20.50;94093.00;;;;10414217;28;45263;-64
2022/05/20 15:37:38;;;;;;;1.67;1.40;;;18.40;53.90;20.50;94118.00;;;;10370020;28;45216;-64
2022/05/20 15:43:00;;;;;;;1.58;1.13;;;18.40;53.90;20.40;94127.00;;;;10367450;28;45153;-63
2022/05/20 15:48:20;;;;;;;2.25;1.20;;;18.40;53.90;20.40;94127.00;;;;10354738;28;45114;-64
2022/05/20 15:53:42;;;;;;;1.75;1.30;;;18.40;53.80;20.40;94139.00;;;;10389122;28;45291;-64
2022/05/20 15:59:04;;;;;;;1.73;1.40;;;18.40;53.80;20.40;94147.00;;;;10393616;28;45140;-64
2022/05/20 16:04:24;;;;;;;1.55;1.20;;;18.30;53.80;20.40;94160.00;;;;10350842;28;45270;-64
2022/05/20 16:09:48;;;;;;;2.35;1.30;;;18.30;53.80;20.40;94167.00;;;;10354283;28;45140;-64
2022/05/20 16:15:09;;;;;;;1.92;1.27;;;18.30;53.80;20.30;94157.00;;;;10354175;28;45244;-64
2022/05/20 16:20:30;;;;;;;1.77;1.20;;;18.30;53.80;20.40;94154.00;;;;10354134;28;45224;-64
2022/05/20 16:25:56;;;;;;;1.98;1.25;;;18.30;53.80;20.40;94143.00;;;;10353894;28;45205;-64
2022/05/20 16:31:17;;;;;;;1.77;1.30;;;18.30;53.80;20.40;94102.00;;;;10354289;28;45330;-64
2022/05/20 16:36:38;;;;;;;2.10;1.10;;;18.40;53.90;20.40;94075.00;;;;10359681;28;45240;-64
2022/05/20 16:42:00;;;;;;;1.20;1.08;;;18.30;53.80;20.40;94054.00;;;;10361155;28;45285;-64
2022/05/20 16:47:21;;;;;;;2.15;1.30;;;18.30;53.80;20.40;94080.00;;;;10360545;28;45209;-65
2022/05/20 16:52:42;;;;;;;1.35;1.20;;;18.30;53.80;20.30;94087.00;;;;10360737;28;45266;-64
2022/05/20 17:03:43;;;;;;;1.88;1.10;;;18.30;53.60;20.40;94124.00;;;;10360475;28;45314;-64
2022/05/20 17:09:05;;;;;;;1.95;1.13;;;18.30;53.60;20.40;94124.00;;;;10366432;28;45845;-64
2022/05/20 17:14:28;;;;;;;1.58;1.20;;;18.30;53.50;20.40;94099.00;;;;10387497;28;45260;-65
2022/05/20 17:19:51;;;;;;;1.70;1.10;;;18.40;53.50;20.40;94102.00;;;;10373906;28;45252;-64
2022/05/20 17:25:12;;;;;;;2.28;1.30;;;18.40;53.40;20.40;94104.00;;;;10359231;28;45854;-64
2022/05/20 17:30:34;;;;;;;1.30;1.08;;;18.40;53.30;20.40;94106.00;;;;10359453;28;45202;-61
2022/05/20 17:35:55;;;;;;;2.47;1.30;;;18.30;53.80;20.40;94093.00;;;;10366706;28;45215;-62
2022/05/20 17:41:16;;;;;;;1.77;1.20;;;18.30;55.10;20.40;94101.00;;;;10398956;28;45157;-61
2022/05/20 17:46:40;;;;;;;1.75;1.20;;;18.30;54.30;20.40;94085.00;;;;10397583;28;45245;-61
2022/05/20 17:52:00;;;;;;;2.03;1.10;;;18.30;54.70;20.40;94086.00;;;;10398107;28;45288;-60
2022/05/20 17:57:24;;;;;;;1.77;0.90;;;18.30;54.70;20.40;94069.00;;;;10393645;28;45914;-60
2022/05/20 18:02:45;;;;;;;2.60;1.08;;;18.30;54.50;20.40;94071.00;;;;10380314;28;45029;-61
2022/05/20 18:08:07;;;;;;;1.65;0.85;;;18.30;54.40;20.30;94068.00;;;;10382321;28;45349;-60
2022/05/20 18:13:28;;;;;;;2.47;1.13;;;18.30;54.40;20.30;94070.00;;;;10382608;28;45188;-61
2022/05/20 18:18:50;;;;;;;2.85;1.40;;;18.20;54.30;20.30;94076.00;;;;10375464;28;45172;-60
2022/05/20 18:24:11;;;;;;;1.58;1.00;;;18.20;54.30;20.30;94058.00;;;;10382050;28;45330;-60
2022/05/20 18:29:31;;;;;;;1.13;0.82;;;18.20;54.20;20.30;94066.00;;;;10346226;22;45396;-59
2022/05/20 18:40:33;;;;;;;2.22;1.05;;;18.20;54.30;20.20;94088.00;;;;10313252;28;45792;-60
2022/05/20 18:45:54;;;;;;;1.67;1.10;;;18.10;54.20;20.20;94086.00;;;;10307581;28;45117;-61
2022/05/20 18:51:16;;;;;;;2.03;1.00;;;18.10;54.10;20.20;94077.00;;;;10315277;28;46250;-61
2022/05/20 18:56:37;;;;;;;3.10;1.17;;;18.10;54.10;20.20;94115.00;;;;10313270;28;45150;-59
2022/05/20 19:01:58;;;;;;;1.98;1.00;;;18.10;54.10;20.20;94126.00;;;;10273842;28;45241;-61
2022/05/20 19:07:20;;;;;;;2.08;1.10;;;18.10;54.10;20.20;94123.00;;;;10273713;28;45214;-60
2022/05/20 19:12:42;;;;;;;1.63;0.90;;;18.10;54.00;20.20;94128.00;;;;10274422;28;45839;-60
2022/05/20 19:18:04;;;;;;;1.60;0.90;;;18.10;54.10;20.10;94135.00;;;;10273584;28;45179;-61
2022/05/20 19:23:26;;;;;;;2.45;1.00;;;18.10;54.00;20.10;94148.00;;;;10273777;28;45210;-61
2022/05/20 19:28:47;;;;;;;1.88;1.05;;;18.00;53.90;20.10;94158.00;;;;10304647;28;45739;-60
2022/05/20 19:34:07;;;;;;;1.88;1.10;;;18.00;53.90;20.10;94157.00;;;;10310538;28;45774;-60
2022/05/20 19:39:29;;;;;;;1.88;1.00;;;18.00;53.90;20.10;94182.00;;;;10312789;28;45206;-60
2022/05/20 19:44:50;;;;;;;1.58;1.00;;;18.00;53.90;20.10;94178.00;;;;10311294;28;45148;-60
2022/05/20 19:50:14;;;;;;;1.65;1.05;;;18.00;53.90;20.10;94204.00;;;;10311281;28;45219;-60
2022/05/20 19:55:35;;;;;;;2.47;1.08;;;18.00;53.80;20.10;94201.00;;;;10308655;28;45317;-60
2022/05/20 20:00:57;;;;;;;1.58;0.90;;;18.00;53.90;20.00;94222.00;;;;10313038;28;45847;-60
2022/05/20 20:06:18;;;;;;;1.98;0.85;;;18.00;54.60;19.90;94222.00;;;;10312692;28;45165;-59
2022/05/20 20:11:40;;;;;;;2.42;0.90;;;17.90;54.70;19.90;94238.00;;;;10312438;28;45400;-60
2022/05/20 20:17:00;;;;;;;1.92;0.95;;;17.90;54.70;19.90;94246.00;;;;10312124;28;45786;-59
2022/05/20 20:28:01;;;;;;;3.15;0.98;;;17.80;55.80;19.90;94263.00;;;;10311689;28;45311;-58
2022/05/20 20:33:21;;;;;;;1.50;0.90;;;17.80;55.00;19.90;94257.00;;;;10312699;28;45396;-58
2022/05/20 20:38:42;;;;;;;1.70;0.80;;;17.80;55.30;19.90;94275.00;;;;10312149;28;45261;-59
2022/05/20 20:44:08;;;;;;;2.60;0.90;;;17.80;55.00;19.90;94276.00;;;;10312868;28;45782;-60
2022/05/20 20:49:28;;;;;;;2.35;1.13;;;17.80;55.00;19.80;94278.00;;;;10312040;28;45378;-60
2022/05/20 20:54:49;;;;;;;2.10;0.90;;;17.80;55.40;19.80;94280.00;;;;10311898;28;45254;-60
2022/05/20 21:00:13;;;;;;;1.92;1.00;;;17.80;55.20;19.80;94280.00;;;;10311103;28;45182;-60
2022/05/20 21:05:34;;;;;;;1.73;0.90;;;17.80;55.10;19.80;94278.00;;;;10311514;28;45179;-60
2022/05/20 21:10:54;;;;;;;2.58;1.10;;;17.80;55.30;19.80;94292.00;;;;10311248;28;45777;-60
2022/05/20 21:16:16;;;;;;;2.08;0.93;;;17.80;55.20;19.80;94278.00;;;;10310973;28;45111;-60
2022/05/20 21:21:37;;;;;;;1.60;0.90;;;17.80;55.30;19.80;94289.00;;;;10313833;28;45198;-60
2022/05/20 21:26:57;;;;;;;1.83;1.00;;;17.80;55.20;19.70;94299.00;;;;10317940;28;45363;-60
2022/05/20 21:32:19;;;;;;;1.83;1.00;;;17.80;55.40;19.80;94290.00;;;;10318156;28;45839;-60
2022/05/20 21:37:40;;;;;;;1.33;0.85;;;17.70;55.40;19.80;94289.00;;;;10317108;28;45287;-61
2022/05/20 21:43:02;;;;;;;1.67;0.80;;;17.80;55.30;19.80;94285.00;;;;10317714;28;45334;-60
2022/05/20 21:48:24;;;;;;;3.15;1.13;;;17.70;55.30;19.80;94303.00;;;;10316202;28;45666;-60
2022/05/20 21:53:44;;;;;;;2.17;1.10;;;17.70;55.40;19.80;94309.00;;;;10317143;28;45782;-59
2022/05/20 21:59:06;;;;;;;1.85;1.17;;;17.80;55.40;19.80;94339.00;;;;10316280;28;45135;-61
2022/05/20 22:10:10;;;;;;;2.13;0.90;;;17.70;55.80;19.80;94322.00;;;;10316198;28;45778;-60
2022/05/20 22:15:31;;;;;;;1.67;1.05;;;17.70;55.60;19.80;94349.00;;;;10316469;28;45213;-59
2022/05/20 22:20:53;;;;;;;2.30;1.00;;;17.70;55.50;19.80;94334.00;;;;10316086;28;45337;-58
2022/05/20 22:26:15;;;;;;;1.92;1.10;;;17.80;56.00;19.80;94351.00;;;;10315664;28;45187;-61
2022/05/20 22:31:36;;;;;;;2.42;1.30;;;17.70;55.90;19.80;94354.00;;;;10315211;28;45114;-62
2022/05/20 22:36:58;;;;;;;1.70;0.95;;;17.70;55.70;19.80;94399.00;;;;10315711;28;45205;-59
2022/05/20 22:42:18;;;;;;;2.03;1.10;;;17.70;55.90;19.80;94380.00;;;;10315953;28;45690;-58
2022/05/20 22:47:38;;;;;;;2.88;1.40;;;17.70;56.00;19.70;94369.00;;;;10315158;28;45117;-59
2022/05/20 22:53:00;;;;;;;2.35;1.10;;;17.70;57.10;19.80;94403.00;;;;10275551;28;45115;-59
2022/05/20 22:58:22;;;;;;;1.52;1.17;;;17.70;56.70;19.80;94439.00;;;;10274278;28;45181;-60
2022/05/20 23:03:42;;;;;;;3.40;1.38;;;17.70;56.90;19.80;94405.00;;;;10274952;28;46090;-60
2022/05/20 23:09:06;;;;;;;2.45;1.40;;;17.70;56.60;19.80;94413.00;;;;10274446;28;45245;-60
2022/05/20 23:14:27;;;;;;;2.58;1.33;;;17.70;57.20;19.80;94410.00;;;;10274571;28;45419;-60
2022/05/20 23:19:54;;;;;;;2.42;1.30;;;17.70;56.90;19.80;94423.00;;;;10273670;28;45885;-60
2022/05/20 23:25:15;;;;;;;2.63;1.20;;;17.70;56.80;19.80;94432.00;;;;10273920;28;45806;-61
2022/05/20 23:30:37;;;;;;;2.05;1.20;;;17.70;56.90;19.80;94413.00;;;;10270488;28;45196;-59
2022/05/20 23:35:58;;;;;;;1.75;1.23;;;17.70;57.00;19.80;94407.00;;;;10268551;28;45215;-60
2022/05/20 23:41:20;;;;;;;3.45;1.23;;;17.70;57.20;19.80;94416.00;;;;10272792;28;45135;-59
2022/05/20 23:46:42;;;;;;;1.40;0.90;;;17.70;57.00;19.80;94427.00;;;;10272611;28;45574;-59
2022/05/20 23:52:04;;;;;;;4.85;1.40;;;17.70;57.00;19.80;94418.00;;;;10273330;28;45179;-59
2022/05/20 23:57:25;;;;;;;1.85;1.20;;;17.70;57.10;19.80;94429.00;;;;10272698;28;45204;-60
